Time;durP1;ratioP1;P1;durP2;ratioP2;P2;SDS_P1;SDS_P2;PMS_P1;PMS_P2;Temp;Humidity;BMP_temperature;BMP_pressure;BME280_temperature;BME280_humidity;BME280_pressure;Samples;Min_cycle;Max_cycle;Signal;HPM_P1;HPM_P2
2023/04/16 00:00:38;;;;;;;6.90;4.90;;;;;;;7.29;72.85;100097.68;78381;1294;3028463;-61
2023/04/16 00:03:05;;;;;;;8.30;5.40;;;;;;;7.10;73.63;100103.27;79609;1294;3012960;-62
2023/04/16 00:05:32;;;;;;;8.30;5.70;;;;;;;6.89;74.06;100109.58;79608;1294;3013270;-62
2023/04/16 00:08:00;;;;;;;12.60;5.80;;;;;;;6.65;75.15;100113.02;78355;1292;3028174;-59
2023/04/16 00:10:26;;;;;;;11.20;6.10;;;;;;;6.67;75.09;100112.61;79591;1294;3013191;-61
2023/04/16 00:12:53;;;;;;;11.60;5.30;;;;;;;6.54;75.60;100111.98;79541;1294;3011413;-62
2023/04/16 00:15:20;;;;;;;12.20;5.00;;;;;;;6.36;75.90;100108.05;78372;1294;3028607;-60
2023/04/16 00:17:47;;;;;;;10.20;5.70;;;;;;;6.34;76.26;100106.72;79666;1294;3018573;-61
2023/04/16 00:20:14;;;;;;;8.80;4.70;;;;;;;6.32;76.46;100106.96;79700;1294;3011912;-61
2023/04/16 00:22:42;;;;;;;8.50;5.00;;;;;;;6.29;76.61;100110.22;78373;1294;3029140;-61
2023/04/16 00:25:08;;;;;;;8.10;5.50;;;;;;;6.17;76.97;100103.09;79693;1292;3013482;-62
2023/04/16 00:27:35;;;;;;;8.80;4.20;;;;;;;6.16;77.22;100101.39;79561;1292;3011770;-61
2023/04/16 00:30:04;;;;;;;5.10;2.90;;;;;;;6.66;76.02;100104.77;78425;1294;3028540;-59
2023/04/16 00:32:32;;;;;;;5.50;3.30;;;;;;;7.25;73.96;100106.88;79746;1294;3011763;-61
2023/04/16 00:34:59;;;;;;;7.00;3.50;;;;;;;7.28;72.84;100105.41;79629;1294;3011436;-62
2023/04/16 00:37:27;;;;;;;6.00;3.90;;;;;;;7.19;72.98;100113.20;78363;1294;3051520;-59
2023/04/16 00:39:53;;;;;;;8.20;3.90;;;;;;;7.05;73.55;100112.68;79597;1292;3012951;-61
2023/04/16 00:42:20;;;;;;;7.60;3.90;;;;;;;6.95;73.92;100117.58;79652;1294;3011729;-61
2023/04/16 00:44:48;;;;;;;6.00;3.90;;;;;;;6.85;74.08;100116.86;78379;1297;3024816;-60
2023/04/16 00:47:15;;;;;;;6.50;3.90;;;;;;;6.71;74.45;100116.27;79589;1295;3013367;-61
2023/04/16 00:49:41;;;;;;;6.30;4.00;;;;;;;6.52;74.98;100113.30;79660;1294;3011508;-61
2023/04/16 00:52:10;;;;;;;8.50;3.90;;;;;;;6.52;75.10;100114.83;78366;1294;3051012;-61
2023/04/16 00:54:38;;;;;;;8.60;3.90;;;;;;;6.45;75.00;100111.60;79702;1292;3013060;-59
2023/04/16 00:57:05;;;;;;;5.90;4.00;;;;;;;6.26;75.65;100117.28;79640;1291;3011733;-60
2023/04/16 00:59:33;;;;;;;4.80;3.60;;;;;;;6.21;75.77;100116.91;78343;1294;3049774;-62
2023/04/16 01:02:00;;;;;;;8.40;3.80;;;;;;;6.17;76.22;100116.14;79564;1295;3012976;-61
2023/04/16 01:04:29;;;;;;;5.90;3.70;;;;;;;6.27;76.06;100114.10;79550;1294;3014498;-62
2023/04/16 01:06:57;;;;;;;7.10;4.40;;;;;;;6.24;76.31;100116.27;78304;1297;3052322;-62
2023/04/16 01:09:24;;;;;;;7.50;3.10;;;;;;;6.17;76.46;100117.38;79534;1297;3012879;-61
2023/04/16 01:11:50;;;;;;;4.40;2.50;;;;;;;6.68;75.27;100114.13;79655;1294;3011630;-62
2023/04/16 01:14:18;;;;;;;5.50;3.00;;;;;;;7.11;72.84;100112.96;78365;1294;3026470;-60
2023/04/16 01:16:45;;;;;;;5.30;2.80;;;;;;;7.15;72.21;100104.28;79617;1294;3014092;-59
2023/04/16 01:19:11;;;;;;;7.40;3.70;;;;;;;7.21;72.06;100112.27;79612;1294;3013220;-60
2023/04/16 01:21:39;;;;;;;8.60;3.40;;;;;;;7.05;72.39;100106.23;78306;1291;3028556;-61
2023/04/16 01:24:06;;;;;;;7.80;3.20;;;;;;;6.83;73.16;100105.27;79598;1294;3013243;-59
2023/04/16 01:26:33;;;;;;;6.90;3.90;;;;;;;6.69;73.52;100102.59;79612;1294;3011827;-63
2023/04/16 01:29:01;;;;;;;5.20;3.30;;;;;;;6.49;74.08;100096.13;78347;1295;3027046;-61
2023/04/16 01:31:28;;;;;;;7.40;4.00;;;;;;;6.31;74.60;100093.95;79595;1294;3013297;-61
2023/04/16 01:34:04;;;;;;;5.70;3.50;;;;;;;6.32;74.49;100099.30;78296;1298;3069598;-61
2023/04/16 01:36:32;;;;;;;4.90;3.00;;;;;;;6.18;74.77;100097.89;79665;1293;3014695;-61
2023/04/16 01:38:59;;;;;;;9.10;4.10;;;;;;;6.03;75.18;100092.77;79479;1291;3013284;-61
2023/04/16 01:41:28;;;;;;;7.20;3.80;;;;;;;5.94;75.63;100098.77;78366;1292;3052874;-60
2023/04/16 01:43:54;;;;;;;7.30;4.10;;;;;;;5.78;76.17;100091.80;79540;1297;3013267;-60
2023/04/16 01:46:25;;;;;;;8.10;4.20;;;;;;;5.73;76.54;100088.96;79634;1294;3013460;-60
2023/04/16 01:48:54;;;;;;;7.50;4.00;;;;;;;5.66;76.67;100093.86;78366;1292;3069386;-61
2023/04/16 01:51:20;;;;;;;8.30;4.40;;;;;;;5.65;76.88;100093.05;79607;1292;3013912;-61
2023/04/16 01:53:48;;;;;;;7.50;4.80;;;;;;;5.60;77.13;100089.73;79575;1292;3013796;-61
2023/04/16 01:56:16;;;;;;;10.70;3.00;;;;;;;5.59;77.55;100090.27;78376;1292;3052677;-61
2023/04/16 01:58:44;;;;;;;5.10;2.50;;;;;;;6.05;76.12;100093.20;79528;1296;3013169;-61
2023/04/16 02:01:12;;;;;;;3.70;2.60;;;;;;;6.63;74.18;100093.93;79609;1294;3013430;-60
2023/04/16 02:03:41;;;;;;;5.50;3.40;;;;;;;6.61;73.61;100092.95;78397;1294;3069420;-61
2023/04/16 03:51:30;;;;;;;4.70;3.00;;;;;;;5.16;78.01;100150.23;80533;1296;3013090;-60
2023/04/16 03:53:57;;;;;;;6.10;2.70;;;;;;;5.64;76.72;100153.91;79392;1295;3015550;-60
2023/04/16 03:56:25;;;;;;;7.20;4.10;;;;;;;6.19;74.32;100149.31;79504;1297;3012787;-60
2023/04/16 03:58:53;;;;;;;9.90;4.70;;;;;;;6.33;73.44;100149.23;78290;1298;3053050;-62
2023/04/16 04:01:20;;;;;;;7.80;3.80;;;;;;;6.28;73.35;100148.35;79511;1297;3013543;-62
2023/04/16 04:03:46;;;;;;;7.50;4.10;;;;;;;6.31;73.27;100155.73;77661;1297;3013391;-61
2023/04/16 04:06:15;;;;;;;7.10;4.60;;;;;;;6.17;73.61;100158.77;78364;1293;3028907;-60
2023/04/16 04:08:42;;;;;;;7.00;4.50;;;;;;;6.06;74.03;100163.81;79702;1295;3013058;-61
2023/04/16 04:11:09;;;;;;;9.50;4.80;;;;;;;5.95;74.35;100169.17;79598;1294;3011618;-62
2023/04/16 04:13:39;;;;;;;11.20;5.00;;;;;;;5.90;74.73;100173.31;78502;1294;3053218;-60
2023/04/16 04:16:06;;;;;;;9.90;5.30;;;;;;;5.84;74.82;100175.91;79616;1293;3012963;-59
2023/04/16 04:18:33;;;;;;;11.20;4.50;;;;;;;5.77;74.86;100173.68;79602;1291;3011693;-61
2023/04/16 04:21:07;;;;;;;8.00;4.40;;;;;;;5.74;74.99;100175.34;78358;1296;3026119;-60
2023/04/16 04:23:37;;;;;;;8.00;4.30;;;;;;;5.79;75.11;100168.59;79038;1295;3011565;-60
2023/04/16 04:26:06;;;;;;;5.80;3.80;;;;;;;5.79;74.94;100170.15;79674;1291;3013487;-59
2023/04/16 04:28:35;;;;;;;7.20;4.40;;;;;;;5.85;74.43;100175.69;78424;1294;3026870;-63
2023/04/16 04:31:01;;;;;;;8.10;5.50;;;;;;;5.83;74.71;100180.27;79569;1295;3018978;-61
2023/04/16 04:33:30;;;;;;;8.10;4.80;;;;;;;5.89;74.34;100184.47;79568;1294;3013481;-61
2023/04/16 04:35:58;;;;;;;6.70;4.30;;;;;;;5.98;74.40;100180.58;78416;1297;3051663;-62
2023/04/16 04:38:25;;;;;;;5.90;3.90;;;;;;;5.99;73.82;100184.88;79605;1292;3014545;-61
2023/04/16 04:40:52;;;;;;;9.90;4.60;;;;;;;6.04;73.74;100185.42;79541;1295;3011312;-61
2023/04/16 04:43:21;;;;;;;7.00;4.90;;;;;;;6.12;73.86;100188.85;78372;1294;3049878;-61
2023/04/16 04:45:48;;;;;;;6.90;4.20;;;;;;;6.20;73.17;100188.27;79609;1295;3013680;-60
2023/04/16 04:48:15;;;;;;;8.10;4.40;;;;;;;6.29;72.81;100179.11;79623;1294;3011521;-61
2023/04/16 04:50:43;;;;;;;6.40;4.80;;;;;;;6.26;72.39;100168.77;78341;1293;3050771;-60
2023/04/16 04:53:10;;;;;;;6.70;4.00;;;;;;;6.31;72.19;100175.38;79558;1292;3015011;-61
2023/04/16 04:55:40;;;;;;;6.90;3.60;;;;;;;6.41;72.08;100180.98;79499;1291;3011528;-63
2023/04/16 04:58:08;;;;;;;5.90;3.80;;;;;;;6.59;71.70;100187.02;78304;1295;3049310;-61
2023/04/16 05:00:35;;;;;;;6.10;4.30;;;;;;;6.73;71.73;100186.91;79768;1295;3013975;-61
2023/04/16 05:03:04;;;;;;;7.50;4.20;;;;;;;6.83;71.24;100185.36;79492;1297;3011645;-61
2023/04/16 05:05:33;;;;;;;11.50;4.20;;;;;;;6.93;70.36;100180.33;78336;1295;3051354;-61
2023/04/16 05:08:00;;;;;;;5.70;3.70;;;;;;;6.92;70.31;100179.67;79587;1292;3014233;-61
2023/04/16 05:10:26;;;;;;;6.80;4.10;;;;;;;6.92;69.91;100180.52;79384;1297;3013085;-61
2023/04/16 05:12:55;;;;;;;5.70;4.20;;;;;;;6.92;69.66;100181.58;78255;1296;3050081;-58
2023/04/16 05:15:21;;;;;;;10.20;3.90;;;;;;;6.86;70.07;100182.64;79531;1295;3012958;-61
2023/04/16 05:17:48;;;;;;;8.20;4.50;;;;;;;6.88;70.01;100178.40;79517;1295;3012635;-60
2023/04/16 05:20:16;;;;;;;6.00;3.70;;;;;;;6.96;69.64;100177.93;78294;1291;3028941;-62
2023/04/16 05:22:42;;;;;;;8.90;4.00;;;;;;;6.99;69.73;100178.03;79627;1292;3013581;-61
2023/04/16 05:25:09;;;;;;;6.30;3.80;;;;;;;7.06;69.36;100183.55;79581;1295;3011664;-61
2023/04/16 05:27:37;;;;;;;7.60;4.00;;;;;;;7.11;69.03;100190.33;78279;1296;3028565;-62
2023/04/16 05:30:04;;;;;;;6.50;4.20;;;;;;;7.28;68.81;100191.98;79540;1297;3021419;-60
2023/04/16 05:32:32;;;;;;;5.50;3.80;;;;;;;7.40;68.35;100195.58;79516;1297;3011763;-61
2023/04/16 05:35:00;;;;;;;6.80;3.80;;;;;;;7.37;68.07;100195.88;78241;1296;3051242;-61
2023/04/16 05:37:26;;;;;;;7.60;4.60;;;;;;;7.44;68.20;100190.05;79532;1292;3013310;-64
2023/04/16 05:39:53;;;;;;;7.20;3.90;;;;;;;7.50;67.70;100186.88;79528;1295;3013941;-61
2023/04/16 05:42:21;;;;;;;7.30;3.80;;;;;;;7.64;67.42;100186.90;78462;1296;3028525;-59
2023/04/16 05:44:49;;;;;;;6.90;3.70;;;;;;;7.67;66.73;100187.96;79544;1297;3013417;-61
2023/04/16 05:47:16;;;;;;;6.20;3.30;;;;;;;7.61;66.70;100186.64;79682;1297;3011568;-59
2023/04/16 05:49:44;;;;;;;6.20;3.40;;;;;;;7.69;66.45;100187.20;78434;1296;3051668;-60
2023/04/16 05:52:10;;;;;;;6.80;3.90;;;;;;;7.77;66.64;100189.70;79777;1291;3013496;-58
2023/04/16 05:54:37;;;;;;;9.40;3.80;;;;;;;7.90;66.66;100195.86;79562;1295;3013107;-63
2023/04/16 05:57:05;;;;;;;5.90;3.80;;;;;;;7.97;66.65;100193.31;78439;1296;3026662;-62
2023/04/16 05:59:33;;;;;;;4.80;2.70;;;;;;;8.11;66.41;100195.59;79637;1305;3013252;-62
2023/04/16 06:01:59;;;;;;;6.40;3.80;;;;;;;8.14;65.57;100193.89;79503;1297;3011482;-62
2023/04/16 06:04:28;;;;;;;7.20;3.90;;;;;;;8.15;65.63;100195.59;78333;1297;3028650;-61
2023/04/16 06:06:55;;;;;;;7.80;2.80;;;;;;;8.25;65.37;100195.71;79629;1292;3013966;-61
2023/04/16 06:09:22;;;;;;;6.80;3.60;;;;;;;8.30;65.17;100194.30;79520;1291;3011775;-62
2023/04/16 06:11:50;;;;;;;6.60;3.60;;;;;;;8.35;65.11;100189.75;78293;1297;3050211;-59
2023/04/16 06:14:16;;;;;;;6.00;3.20;;;;;;;8.28;65.43;100191.77;79589;1295;3013192;-59
2023/04/16 06:16:44;;;;;;;6.60;3.60;;;;;;;8.31;65.48;100193.77;79720;1292;3011863;-62
2023/04/16 06:19:12;;;;;;;7.50;3.60;;;;;;;8.40;65.41;100194.62;78353;1304;3025932;-61
2023/04/16 06:21:39;;;;;;;6.50;3.20;;;;;;;8.47;65.24;100196.61;79672;1292;3019239;-62
2023/04/16 06:24:05;;;;;;;7.30;3.80;;;;;;;8.56;64.94;100196.27;79643;1295;3011493;-61
2023/04/16 06:26:33;;;;;;;6.10;3.30;;;;;;;8.64;64.78;100196.98;78339;1296;3028445;-62
2023/04/16 06:28:59;;;;;;;4.60;3.20;;;;;;;8.70;64.66;100198.14;79549;1296;3018027;-62
2023/04/16 06:31:26;;;;;;;6.30;3.60;;;;;;;8.73;64.61;100199.60;79571;1296;3013564;-62
2023/04/16 06:33:54;;;;;;;8.20;3.50;;;;;;;8.90;64.39;100202.92;78323;1295;3026619;-62
2023/04/16 06:36:21;;;;;;;6.40;3.20;;;;;;;8.95;63.95;100207.59;79662;1295;3013667;-62
2023/04/16 06:38:47;;;;;;;5.30;3.50;;;;;;;9.08;64.03;100214.74;79619;1295;3013371;-61
2023/04/16 06:41:15;;;;;;;6.00;2.90;;;;;;;9.13;63.44;100207.71;78370;1295;3027759;-62
2023/04/16 06:43:43;;;;;;;6.00;3.20;;;;;;;9.11;63.21;100207.98;79572;1295;3012786;-61
2023/04/16 06:46:10;;;;;;;6.60;3.50;;;;;;;9.15;63.05;100197.84;79349;1297;3011606;-62
2023/04/16 06:48:38;;;;;;;5.60;3.00;;;;;;;9.29;63.09;100199.70;78364;1295;3050805;-64
2023/04/16 06:51:05;;;;;;;5.70;3.10;;;;;;;9.30;63.14;100202.62;79485;1296;3013164;-63
2023/04/16 06:53:32;;;;;;;4.60;3.00;;;;;;;9.28;62.50;100207.73;80039;1297;3011467;-60
2023/04/16 06:56:00;;;;;;;4.40;3.10;;;;;;;9.33;62.52;100206.70;78612;1296;3028951;-59
2023/04/16 06:58:27;;;;;;;5.50;2.70;;;;;;;9.40;62.31;100207.27;79504;1305;3013934;-59
2023/04/16 07:00:54;;;;;;;5.20;3.20;;;;;;;9.54;62.39;100213.62;79483;1304;3011629;-60
2023/04/16 07:03:21;;;;;;;7.60;3.10;;;;;;;9.48;62.38;100212.84;78276;1296;3050861;-59
2023/04/16 07:05:48;;;;;;;7.50;3.40;;;;;;;9.59;62.13;100214.80;79542;1306;3011781;-59
2023/04/16 07:08:15;;;;;;;9.90;3.40;;;;;;;9.61;62.44;100216.11;79789;1292;3013219;-59
2023/04/16 07:10:44;;;;;;;5.30;3.00;;;;;;;9.65;62.24;100208.95;78341;1304;3028273;-59
2023/04/16 07:13:10;;;;;;;8.00;2.70;;;;;;;9.71;62.01;100210.25;79672;1297;3013076;-60
2023/04/16 07:15:37;;;;;;;5.50;3.20;;;;;;;9.77;61.55;100212.25;79574;1301;3012013;-59
2023/04/16 07:18:05;;;;;;;5.50;3.00;;;;;;;9.80;61.32;100215.25;78366;1298;3027648;-59
2023/04/16 07:20:32;;;;;;;6.20;2.70;;;;;;;9.93;61.13;100209.59;79617;1295;3013820;-60
2023/04/16 07:22:59;;;;;;;5.70;2.40;;;;;;;9.95;60.74;100208.83;79609;1293;3012092;-59
2023/04/16 07:25:27;;;;;;;6.10;3.10;;;;;;;10.02;60.65;100211.63;78249;1297;3049963;-59
2023/04/16 07:27:53;;;;;;;9.60;3.50;;;;;;;10.08;61.38;100208.56;79636;1297;3015087;-59
2023/04/16 07:30:20;;;;;;;10.20;3.40;;;;;;;10.06;61.30;100211.95;79667;1295;3011480;-58
2023/04/16 07:32:49;;;;;;;8.40;3.30;;;;;;;10.17;61.22;100214.78;78479;1292;3052001;-59
2023/04/16 07:35:16;;;;;;;9.70;3.20;;;;;;;10.27;61.00;100213.65;79619;1295;3012869;-59
2023/04/16 07:37:43;;;;;;;5.50;3.00;;;;;;;10.31;60.96;100209.95;79604;1297;3011650;-59
2023/04/16 07:40:11;;;;;;;4.60;2.70;;;;;;;10.38;60.49;100210.67;78278;1296;3028432;-60
2023/04/16 07:42:38;;;;;;;5.20;2.30;;;;;;;10.53;59.66;100211.39;79820;1295;3013823;-59
2023/04/16 07:45:05;;;;;;;5.70;2.40;;;;;;;10.56;59.21;100204.39;79589;1295;3011654;-58
2023/04/16 07:47:33;;;;;;;4.20;2.50;;;;;;;10.72;59.17;100203.96;78492;1295;3051463;-60
2023/04/16 07:50:00;;;;;;;3.30;1.80;;;;;;;10.80;58.43;100204.45;79731;1296;3012936;-60
2023/04/16 07:52:26;;;;;;;6.00;2.50;;;;;;;10.85;58.49;100189.13;79632;1296;3013237;-59
2023/04/16 07:54:54;;;;;;;3.90;2.30;;;;;;;10.87;58.28;100185.89;78329;1295;3026907;-59
2023/04/16 07:57:21;;;;;;;3.30;2.20;;;;;;;10.86;58.27;100183.27;79553;1297;3020496;-60
2023/04/16 07:59:47;;;;;;;4.50;2.60;;;;;;;10.97;58.30;100191.67;79537;1292;3011890;-61
2023/04/16 08:02:15;;;;;;;6.90;2.40;;;;;;;11.07;57.94;100198.90;78540;1292;3028097;-59
2023/04/16 08:04:42;;;;;;;18.30;3.40;;;;;;;11.17;57.75;100193.31;79490;1293;3020673;-59
2023/04/16 08:07:09;;;;;;;9.30;3.00;;;;;;;11.29;57.68;100191.79;79497;1304;3013574;-60
2023/04/16 08:09:46;;;;;;;19.00;3.90;;;;;;;11.38;57.48;100182.20;78321;1297;3028738;-59
2023/04/16 08:12:15;;;;;;;16.90;4.00;;;;;;;11.33;57.13;100178.59;78329;1295;3052804;-59
2023/04/16 08:14:42;;;;;;;7.50;3.30;;;;;;;11.32;57.20;100182.55;79651;1297;3013571;-59
2023/04/16 08:17:09;;;;;;;12.10;2.80;;;;;;;11.32;57.29;100175.88;79856;1297;3011571;-62
2023/04/16 08:19:37;;;;;;;16.20;3.30;;;;;;;11.33;57.20;100175.64;78550;1295;3056519;-61
2023/04/16 08:22:04;;;;;;;12.30;3.20;;;;;;;11.36;56.78;100171.59;79731;1291;3020922;-62
2023/04/16 08:24:30;;;;;;;17.60;3.90;;;;;;;11.45;56.92;100176.04;79496;1292;3013634;-63
2023/04/16 08:26:58;;;;;;;10.30;3.10;;;;;;;11.55;57.08;100175.50;78494;1297;3025859;-62
2023/04/16 08:29:25;;;;;;;14.90;3.60;;;;;;;11.68;56.47;100171.69;79665;1295;3012803;-62
2023/04/16 08:31:52;;;;;;;12.10;3.40;;;;;;;11.80;56.64;100176.30;79642;1295;3013651;-63
2023/04/16 08:34:20;;;;;;;13.10;2.30;;;;;;;11.88;56.36;100175.67;78508;1294;3056794;-62
2023/04/16 08:36:47;;;;;;;4.00;2.10;;;;;;;11.89;55.72;100180.88;79883;1291;3013496;-62
2023/04/16 08:39:14;;;;;;;4.40;2.10;;;;;;;11.90;55.17;100179.46;79707;1293;3011904;-62
2023/04/16 08:41:43;;;;;;;10.70;2.90;;;;;;;11.96;54.93;100176.84;78730;1295;3054464;-60
2023/04/16 08:44:34;;;;;;;9.30;3.00;;;;;;;11.98;55.07;100178.48;79664;1297;3013802;-62
2023/04/16 08:47:01;;;;;;;7.80;2.40;;;;;;;12.06;54.70;100168.40;78453;1295;3050414;-62
2023/04/16 08:49:28;;;;;;;6.40;2.60;;;;;;;12.16;54.76;100166.79;79472;1297;3013353;-61
2023/04/16 08:51:55;;;;;;;7.40;2.00;;;;;;;12.22;54.69;100165.75;79493;1297;3012780;-62
2023/04/16 08:54:43;;;;;;;21.40;2.90;;;;;;;12.28;54.36;100166.48;78022;1297;3028567;-62
2023/04/16 08:57:11;;;;;;;11.00;2.90;;;;;;;12.30;54.25;100164.44;78083;1299;3052619;-62
2023/04/16 08:59:39;;;;;;;9.20;2.70;;;;;;;12.28;54.15;100160.15;79362;1296;3013475;-63
2023/04/16 09:02:05;;;;;;;4.40;2.10;;;;;;;12.37;54.40;100157.89;79275;1295;3012059;-62
2023/04/16 09:04:33;;;;;;;5.00;2.30;;;;;;;12.49;53.77;100160.23;78103;1297;3028642;-63
2023/04/16 09:07:00;;;;;;;5.90;2.70;;;;;;;12.51;53.61;100154.80;79372;1293;3013017;-62
2023/04/16 09:09:26;;;;;;;5.80;2.20;;;;;;;12.55;53.64;100160.58;79113;1298;3011932;-61
2023/04/16 09:11:54;;;;;;;3.70;2.30;;;;;;;12.68;53.44;100158.91;78364;1296;3026486;-62
2023/04/16 09:14:21;;;;;;;3.60;2.20;;;;;;;12.73;53.10;100158.79;79530;1297;3018496;-60
2023/04/16 09:16:48;;;;;;;5.20;2.00;;;;;;;12.68;53.26;100158.55;79421;1296;3011768;-62
2023/04/16 09:19:15;;;;;;;8.50;2.60;;;;;;;12.78;53.00;100155.17;78261;1294;3027884;-63
2023/04/16 09:21:45;;;;;;;9.40;2.60;;;;;;;12.79;52.65;100154.62;79584;1297;3013828;-61
2023/04/16 09:24:11;;;;;;;5.30;1.60;;;;;;;12.82;52.42;100154.42;79580;1293;3013719;-63
2023/04/16 09:26:42;;;;;;;4.40;1.80;;;;;;;12.94;52.03;100155.27;78293;1297;3053380;-62
2023/04/16 09:29:08;;;;;;;7.30;1.80;;;;;;;13.03;52.27;100150.72;79451;1296;3012899;-61
2023/04/16 09:31:35;;;;;;;4.60;2.20;;;;;;;13.01;52.66;100148.19;79593;1296;3011912;-62
2023/04/16 09:34:07;;;;;;;2.80;1.60;;;;;;;13.01;52.23;100148.19;78350;1296;3057259;-61
2023/04/16 09:36:35;;;;;;;3.90;2.40;;;;;;;13.03;51.97;100146.02;79431;1297;3013373;-62
2023/04/16 09:39:03;;;;;;;3.50;1.90;;;;;;;13.15;51.73;100143.50;78360;1294;3053499;-62
2023/04/16 09:41:32;;;;;;;6.60;2.40;;;;;;;13.25;51.99;100142.73;79420;1297;3012707;-61
2023/04/16 09:44:00;;;;;;;7.90;2.00;;;;;;;13.40;51.72;100140.73;79433;1296;3012512;-63
2023/04/16 09:46:30;;;;;;;3.50;2.20;;;;;;;13.47;51.60;100145.81;78336;1297;3069329;-63
2023/04/16 09:48:57;;;;;;;2.60;1.60;;;;;;;13.65;51.12;100148.55;79516;1294;3013215;-61
2023/04/16 09:51:25;;;;;;;3.70;1.70;;;;;;;13.71;50.77;100146.77;79421;1293;3011744;-62
2023/04/16 09:53:55;;;;;;;12.70;2.40;;;;;;;13.83;50.19;100148.86;78340;1294;3053370;-61
2023/04/16 09:56:24;;;;;;;7.40;2.30;;;;;;;13.84;49.76;100144.36;79478;1294;3013322;-61
2023/04/16 09:58:57;;;;;;;7.80;2.20;;;;;;;13.92;49.61;100151.11;78238;1297;3026910;-62
2023/04/16 10:01:24;;;;;;;5.00;2.50;;;;;;;14.00;49.39;100142.13;79540;1296;3011527;-62
2023/04/16 10:03:52;;;;;;;8.20;3.10;;;;;;;14.07;49.28;100149.40;78703;1297;3068487;-63
2023/04/16 10:06:21;;;;;;;6.30;3.10;;;;;;;14.21;49.24;100149.23;79547;1293;3015487;-63
2023/04/16 10:08:51;;;;;;;6.20;2.30;;;;;;;14.31;48.90;100157.59;79162;1292;3011610;-63
2023/04/16 10:11:19;;;;;;;7.70;2.00;;;;;;;14.29;48.80;100155.41;79621;1292;3012807;-62
2023/04/16 10:13:48;;;;;;;3.00;1.80;;;;;;;14.22;48.73;100153.92;78999;1296;3012955;-62
2023/04/16 10:16:15;;;;;;;6.10;2.40;;;;;;;14.32;48.93;100153.67;79586;1296;3013177;-62
2023/04/16 10:18:42;;;;;;;7.10;2.60;;;;;;;14.48;49.00;100151.55;79505;1296;3013720;-61
2023/04/16 10:21:11;;;;;;;5.00;2.00;;;;;;;14.62;48.25;100147.80;78419;1292;3068584;-63
2023/04/16 10:23:39;;;;;;;5.50;1.90;;;;;;;14.61;47.82;100154.02;79660;1292;3012890;-61
2023/04/16 10:26:05;;;;;;;8.40;1.80;;;;;;;14.51;48.02;100153.60;79519;1293;3011587;-61
2023/04/16 10:28:36;;;;;;;5.40;2.30;;;;;;;14.50;47.78;100145.81;78339;1296;3053093;-60
2023/04/16 10:31:04;;;;;;;5.30;2.70;;;;;;;14.60;47.88;100149.70;79415;1297;3013496;-62
2023/04/16 10:33:32;;;;;;;4.10;1.80;;;;;;;14.67;47.74;100145.41;79478;1298;3011887;-62
2023/04/16 10:36:10;;;;;;;3.20;1.70;;;;;;;14.69;47.63;100146.33;78332;1293;3068107;-63
2023/04/16 10:38:40;;;;;;;3.90;1.40;;;;;;;14.67;47.18;100147.84;78313;1297;3052101;-62
2023/04/16 10:41:07;;;;;;;5.20;2.00;;;;;;;14.68;47.27;100149.88;79614;1294;3013124;-63
2023/04/16 10:43:41;;;;;;;7.60;2.10;;;;;;;14.73;47.10;100149.91;78993;1296;3011811;-62
2023/04/16 10:46:25;;;;;;;4.80;2.20;;;;;;;14.86;46.76;100151.54;79546;1296;3012968;-61
2023/04/16 10:48:53;;;;;;;6.00;2.20;;;;;;;14.92;46.67;100148.48;78564;1297;3050282;-62
2023/04/16 10:51:27;;;;;;;5.10;2.70;;;;;;;14.99;46.07;100144.85;79435;1297;3015313;-64
2023/04/16 10:53:56;;;;;;;4.30;1.80;;;;;;;15.12;46.18;100145.19;78176;1293;3068297;-63
2023/04/16 10:56:25;;;;;;;8.00;2.90;;;;;;;15.27;46.20;100144.13;79396;1296;3013389;-63
2023/04/16 10:58:55;;;;;;;6.40;2.20;;;;;;;15.33;45.88;100139.67;78819;1292;3011604;-62
2023/04/16 11:01:32;;;;;;;5.20;1.70;;;;;;;15.47;45.53;100142.79;79318;1294;3014935;-62
2023/04/16 11:04:21;;;;;;;7.30;1.90;;;;;;;15.55;45.25;100141.86;78128;1296;3050732;-63
2023/04/16 11:07:04;;;;;;;5.10;1.90;;;;;;;15.71;45.58;100135.23;78227;1297;3053101;-63
2023/04/16 11:10:01;;;;;;;9.00;2.20;;;;;;;15.72;45.20;100131.99;78158;1296;3052606;-61
2023/04/16 11:12:36;;;;;;;3.00;1.90;;;;;;;15.87;44.71;100131.81;78084;1297;3069956;-62
2023/04/16 11:15:13;;;;;;;8.60;2.50;;;;;;;16.06;44.65;100126.41;78213;1296;3052110;-62
2023/04/16 11:17:45;;;;;;;5.40;2.30;;;;;;;16.10;43.86;100129.98;78148;1292;3055816;-62
2023/04/16 11:20:25;;;;;;;4.90;1.90;;;;;;;16.21;43.85;100129.21;79425;1296;3013658;-63
2023/04/16 11:22:54;;;;;;;3.90;1.90;;;;;;;16.26;43.96;100129.15;78298;1296;3053659;-63
2023/04/16 11:25:24;;;;;;;4.00;1.90;;;;;;;16.30;43.23;100121.60;79477;1296;3014911;-62
2023/04/16 11:27:52;;;;;;;6.30;2.10;;;;;;;16.36;43.07;100116.77;78446;1292;3050747;-63
2023/04/16 11:30:28;;;;;;;5.80;1.90;;;;;;;16.36;42.74;100118.55;79648;1293;3013415;-62
2023/04/16 11:32:56;;;;;;;9.90;1.90;;;;;;;16.47;42.55;100109.95;78277;1296;3058174;-62
2023/04/16 11:35:23;;;;;;;6.20;1.90;;;;;;;16.57;41.87;100108.69;79522;1296;3020675;-62
2023/04/16 11:37:54;;;;;;;6.00;2.80;;;;;;;16.65;41.99;100103.29;79957;1292;3011460;-61
2023/04/16 11:40:22;;;;;;;5.30;1.80;;;;;;;16.65;42.38;100097.06;78242;1296;3051973;-63
2023/04/16 11:42:49;;;;;;;7.60;1.70;;;;;;;16.78;42.52;100097.30;79468;1293;3013528;-61
2023/04/16 11:45:18;;;;;;;6.40;2.00;;;;;;;16.87;42.50;100098.23;79431;1296;3011359;-61
2023/04/16 11:47:51;;;;;;;4.20;2.00;;;;;;;16.99;42.39;100099.52;78546;1293;3056668;-60
2023/04/16 11:50:19;;;;;;;5.80;2.10;;;;;;;17.17;42.24;100096.30;79377;1293;3011926;-62
2023/04/16 11:52:47;;;;;;;3.40;2.00;;;;;;;17.27;42.01;100098.23;78259;1297;3053243;-62
2023/04/16 11:55:14;;;;;;;5.10;2.20;;;;;;;17.35;40.64;100098.30;79392;1296;3012817;-61
2023/04/16 11:57:41;;;;;;;7.90;1.70;;;;;;;17.38;40.88;100091.54;79481;1296;3011624;-63
2023/04/16 12:00:12;;;;;;;4.70;1.70;;;;;;;17.24;40.82;100092.80;78196;1296;3028528;-63
2023/04/16 12:02:45;;;;;;;13.70;2.10;;;;;;;17.28;40.77;100095.13;79532;1296;3012083;-62
2023/04/16 12:05:33;;;;;;;3.80;1.70;;;;;;;17.37;40.34;100087.67;78351;1296;3056352;-61
2023/04/16 12:08:02;;;;;;;4.90;2.10;;;;;;;17.44;40.54;100090.15;78276;1296;3050015;-61
2023/04/16 12:10:31;;;;;;;4.10;1.70;;;;;;;17.41;40.55;100086.96;79567;1293;3012928;-61
2023/04/16 12:13:29;;;;;;;3.50;1.40;;;;;;;17.47;40.36;100083.55;81526;1292;3011520;-62
2023/04/16 12:15:57;;;;;;;10.30;2.40;;;;;;;17.52;39.81;100079.92;80142;1292;3052554;-63
2023/04/16 12:18:27;;;;;;;10.70;2.70;;;;;;;17.38;39.91;100077.67;79893;1294;3012774;-62
2023/04/16 12:20:56;;;;;;;11.30;3.20;;;;;;;17.57;39.59;100080.60;79035;1292;3011466;-62
2023/04/16 12:23:31;;;;;;;10.80;2.80;;;;;;;17.77;39.45;100080.73;79415;1293;3013351;-62
2023/04/16 12:26:09;;;;;;;8.60;2.80;;;;;;;17.81;39.46;100075.52;78272;1297;3049631;-62
2023/04/16 12:28:40;;;;;;;5.10;2.30;;;;;;;17.87;39.29;100071.14;78334;1293;3052649;-61
2023/04/16 12:31:07;;;;;;;4.40;2.30;;;;;;;18.02;39.60;100069.70;79660;1293;3011699;-63
2023/04/16 12:33:35;;;;;;;7.80;2.50;;;;;;;18.09;38.81;100070.02;78289;1296;3030261;-62
2023/04/16 12:36:16;;;;;;;3.00;1.70;;;;;;;18.04;37.77;100065.84;79655;1296;3021238;-62
2023/04/16 12:38:44;;;;;;;4.80;2.00;;;;;;;18.01;37.89;100069.45;78331;1296;3051550;-61
2023/04/16 12:41:11;;;;;;;7.50;2.80;;;;;;;17.84;37.91;100073.48;79460;1294;3013377;-62
2023/04/16 12:43:37;;;;;;;3.10;1.90;;;;;;;17.73;38.03;100067.78;79398;1296;3011566;-62
2023/04/16 12:46:05;;;;;;;5.40;1.90;;;;;;;17.88;37.33;100063.41;78214;1296;3026482;-61
2023/04/16 12:48:33;;;;;;;4.00;2.00;;;;;;;17.86;37.11;100066.05;79601;1296;3013023;-62
2023/04/16 12:51:00;;;;;;;9.90;2.20;;;;;;;17.82;37.83;100064.73;79575;1294;3011514;-62
2023/04/16 12:53:27;;;;;;;4.40;2.00;;;;;;;17.73;38.00;100062.86;78416;1292;3051146;-63
2023/04/16 12:55:54;;;;;;;7.80;1.70;;;;;;;17.87;37.97;100066.55;79386;1296;3013549;-62
2023/04/16 12:58:21;;;;;;;7.60;2.20;;;;;;;18.12;38.28;100065.23;79628;1293;3013155;-62
2023/04/16 13:00:49;;;;;;;4.40;1.70;;;;;;;18.24;37.26;100065.80;78276;1296;3026311;-62
2023/04/16 13:03:15;;;;;;;384.80;25.10;;;;;;;18.26;37.00;100057.45;79589;1296;3011910;-61